createdAt,value
2018-07-20T00:02:22.494Z,24.73
2018-07-20T00:04:53.451Z,24.73
2018-07-20T00:07:25.577Z,24.71
2018-07-20T00:09:56.050Z,24.63
2018-07-20T00:12:26.519Z,24.60
2018-07-20T00:14:56.936Z,24.57
2018-07-20T00:17:27.344Z,24.62
2018-07-20T00:19:58.020Z,24.65
2018-07-20T00:22:28.313Z,24.62
2018-07-20T00:24:58.686Z,24.65
2018-07-20T00:27:30.144Z,24.74
2018-07-20T00:30:00.965Z,24.78
2018-07-20T00:32:33.435Z,24.64
2018-07-20T00:35:05.102Z,24.64
2018-07-20T00:37:36.587Z,24.59
2018-07-20T00:40:08.589Z,24.56
2018-07-20T00:42:38.941Z,24.56
2018-07-20T00:45:15.066Z,24.58
2018-07-20T00:47:45.632Z,24.58
2018-07-20T00:50:21.683Z,24.61
2018-07-20T00:52:52.311Z,24.60
2018-07-20T00:55:22.713Z,24.55
2018-07-20T00:57:57.257Z,24.51
2018-07-20T01:00:29.114Z,24.42
2018-07-20T01:03:02.652Z,24.39
2018-07-20T01:05:36.879Z,24.32
2018-07-20T01:08:09.466Z,24.32
2018-07-20T01:10:43.440Z,24.31
2018-07-20T01:13:17.428Z,24.18
2018-07-20T01:15:49.336Z,24.02
2018-07-20T01:18:19.796Z,24.01
2018-07-20T01:20:50.319Z,24.05
2018-07-20T01:23:21.103Z,24.07
2018-07-20T01:25:52.247Z,23.99
2018-07-20T01:28:23.420Z,23.82
2018-07-20T01:30:54.247Z,23.76
2018-07-20T01:33:24.822Z,23.79
2018-07-20T01:35:55.417Z,23.74
2018-07-20T01:38:25.586Z,23.78
2018-07-20T01:40:55.776Z,23.81
2018-07-20T01:43:26.897Z,23.85
2018-07-20T01:45:59.210Z,23.84
2018-07-20T01:48:34.911Z,23.88
2018-07-20T01:51:06.900Z,23.98
2018-07-20T01:53:37.720Z,24.01
2018-07-20T01:56:14.251Z,24.00
2018-07-20T01:58:44.728Z,23.95
2018-07-20T02:01:16.894Z,23.98
2018-07-20T02:03:47.310Z,23.96
2018-07-20T02:06:19.573Z,23.97
2018-07-20T02:08:50.218Z,23.89
2018-07-20T02:11:21.534Z,23.75
2018-07-20T02:13:51.893Z,23.75
2018-07-20T02:16:23.645Z,23.79
2018-07-20T02:18:54.283Z,23.76
2018-07-20T02:21:25.121Z,23.74
2018-07-20T02:23:57.204Z,23.72
2018-07-20T02:26:27.731Z,23.68
2018-07-20T02:28:58.539Z,23.63
2018-07-20T02:31:29.454Z,23.62
2018-07-20T02:34:01.943Z,23.64
2018-07-20T02:36:33.182Z,23.63
2018-07-20T02:39:09.904Z,23.58
2018-07-20T02:41:40.741Z,23.61
2018-07-20T02:44:11.947Z,23.65
2018-07-20T02:46:42.591Z,23.66
2018-07-20T02:49:14.972Z,23.62
2018-07-20T02:51:46.260Z,23.63
2018-07-20T02:54:16.593Z,23.67
2018-07-20T02:56:50.270Z,23.68
2018-07-20T02:59:22.208Z,23.60
2018-07-20T03:01:53.060Z,23.59
2018-07-20T03:04:24.351Z,23.57
2018-07-20T03:06:55.005Z,23.57
2018-07-20T03:09:27.251Z,23.56
2018-07-20T03:11:57.904Z,23.52
2018-07-20T03:14:28.578Z,23.46
2018-07-20T03:16:59.070Z,23.44
2018-07-20T03:19:30.722Z,23.36
2018-07-20T03:22:02.512Z,23.24
2018-07-20T03:24:33.442Z,23.14
2018-07-20T03:27:04.093Z,22.94
2018-07-20T03:29:35.116Z,22.85
2018-07-20T03:32:07.563Z,22.75
2018-07-20T03:34:38.590Z,22.69
2018-07-20T03:37:09.816Z,22.61
2018-07-20T03:39:40.395Z,22.56
2018-07-20T03:42:10.734Z,22.52
2018-07-20T03:44:41.349Z,22.47
2018-07-20T03:47:13.177Z,22.43
2018-07-20T03:49:44.009Z,22.35
2018-07-20T03:52:15.222Z,22.44
2018-07-20T03:54:45.994Z,22.28
2018-07-20T03:57:16.359Z,22.33
2018-07-20T03:59:48.079Z,22.40
2018-07-20T04:02:20.009Z,22.37
2018-07-20T04:04:51.298Z,22.40
2018-07-20T04:07:22.018Z,22.37
2018-07-20T04:09:52.750Z,22.47
2018-07-20T04:12:23.524Z,22.48
2018-07-20T04:15:00.743Z,22.55
2018-07-20T04:17:44.749Z,22.52
2018-07-20T04:20:17.625Z,22.45
2018-07-20T04:22:59.211Z,22.45
2018-07-20T04:25:32.129Z,22.54
2018-07-20T04:28:03.568Z,22.64
2018-07-20T04:30:37.077Z,22.64
2018-07-20T04:33:07.930Z,22.43
2018-07-20T04:35:41.520Z,22.27
2018-07-20T04:38:12.042Z,22.13
2018-07-20T04:40:43.324Z,22.06
2018-07-20T04:43:13.785Z,22.13
2018-07-20T04:45:46.086Z,22.16
2018-07-20T04:48:18.280Z,21.90
2018-07-20T04:50:48.836Z,21.93
2018-07-20T04:53:21.685Z,22.10
2018-07-20T04:55:53.500Z,22.00
2018-07-20T04:58:23.907Z,22.06
2018-07-20T05:00:54.565Z,21.93
2018-07-20T05:03:26.850Z,21.85
2018-07-20T05:05:57.885Z,21.92
2018-07-20T05:08:28.658Z,22.04
2018-07-20T05:10:59.033Z,22.36
2018-07-20T05:13:30.918Z,22.64
2018-07-20T05:16:02.675Z,22.95
2018-07-20T05:18:33.934Z,23.23
2018-07-20T05:21:04.298Z,23.31
2018-07-20T05:23:40.098Z,23.52
2018-07-20T05:26:15.561Z,23.69
2018-07-20T05:28:50.383Z,23.59
2018-07-20T05:31:24.088Z,23.68
2018-07-20T05:33:59.153Z,23.84
2018-07-20T05:36:31.662Z,23.80
2018-07-20T05:39:02.032Z,24.04
2018-07-20T05:41:34.662Z,24.20
2018-07-20T05:44:17.783Z,24.39
2018-07-20T05:46:54.595Z,24.78
2018-07-20T05:49:30.761Z,24.84
2018-07-20T05:52:05.635Z,25.26
2018-07-20T05:54:37.447Z,25.61
2018-07-20T05:57:09.383Z,25.89
2018-07-20T05:59:42.203Z,26.28
2018-07-20T06:02:15.005Z,26.71
2018-07-20T06:04:46.024Z,27.00
2018-07-20T06:07:18.703Z,26.75
2018-07-20T06:09:53.322Z,26.54
2018-07-20T06:12:25.821Z,26.88
2018-07-20T06:15:00.220Z,26.84
2018-07-20T06:17:37.863Z,26.70
2018-07-20T06:20:16.006Z,27.37
2018-07-20T06:22:51.986Z,27.42
2018-07-20T06:25:24.274Z,27.66
2018-07-20T06:27:58.464Z,27.99
2018-07-20T06:30:41.211Z,27.83
2018-07-20T06:33:12.742Z,28.08
2018-07-20T06:35:45.333Z,28.32
2018-07-20T06:38:28.783Z,28.79
2018-07-20T06:41:02.841Z,28.54
2018-07-20T06:43:34.590Z,28.33
2018-07-20T06:46:06.635Z,28.32
2018-07-20T06:48:38.388Z,28.12
2018-07-20T06:51:10.585Z,28.32
2018-07-20T06:53:41.707Z,28.30
2018-07-20T06:58:55.839Z,28.68
2018-07-20T07:01:27.212Z,29.10
2018-07-20T07:04:21.392Z,29.38
2018-07-20T07:06:54.359Z,29.29
2018-07-20T07:09:28.139Z,29.47
2018-07-20T07:12:02.759Z,29.72
2018-07-20T07:14:34.012Z,29.68
2018-07-20T07:17:06.013Z,29.42
2018-07-20T07:19:36.679Z,29.20
2018-07-20T07:22:08.789Z,29.22
2018-07-20T07:24:41.544Z,29.68
2018-07-20T07:27:12.200Z,29.71
2018-07-20T07:30:07.325Z,29.99
2018-07-20T07:32:47.482Z,29.62
2018-07-20T07:35:26.428Z,29.44
2018-07-20T07:38:00.946Z,29.61
2018-07-20T07:40:35.140Z,29.53
2018-07-20T07:43:13.304Z,30.08
2018-07-20T07:45:47.598Z,30.43
2018-07-20T07:48:19.817Z,30.04
2018-07-20T07:50:50.616Z,30.51
2018-07-20T07:53:35.147Z,31.28
2018-07-20T07:56:07.118Z,31.85
2018-07-20T07:58:40.491Z,31.93
2018-07-20T08:01:12.833Z,32.00
2018-07-20T08:03:44.874Z,32.32
2018-07-20T08:06:25.153Z,31.93
2018-07-20T08:09:01.496Z,32.35
2018-07-20T08:11:43.128Z,32.25
2018-07-20T08:14:29.798Z,31.78
2018-07-20T08:17:05.484Z,32.31
2018-07-20T08:19:39.305Z,32.84
2018-07-20T08:22:16.480Z,32.90
2018-07-20T08:25:05.898Z,32.97
2018-07-20T08:27:36.625Z,33.19
2018-07-20T08:30:09.573Z,33.34
2018-07-20T08:32:42.060Z,32.63
2018-07-20T08:35:12.891Z,32.76
2018-07-20T08:37:43.643Z,32.92
2018-07-20T08:40:16.427Z,32.62
2018-07-20T08:42:49.764Z,32.60
2018-07-20T08:45:22.483Z,32.86
2018-07-20T08:47:53.524Z,33.31
2018-07-20T08:50:32.605Z,33.47
2018-07-20T08:53:08.607Z,33.14
2018-07-20T08:55:50.491Z,33.35
2018-07-20T09:01:14.137Z,34.11
2018-07-20T09:03:51.533Z,34.43
2018-07-20T09:06:24.554Z,34.28
2018-07-20T09:09:03.641Z,34.33
2018-07-20T09:11:34.596Z,34.19
2018-07-20T09:16:46.303Z,34.24
2018-07-20T09:19:17.463Z,34.55
2018-07-20T09:21:49.200Z,34.63
2018-07-20T09:24:21.438Z,34.76
2018-07-20T09:26:59.998Z,34.59
2018-07-20T09:29:38.405Z,35.14
2018-07-20T09:32:15.985Z,34.69
2018-07-20T09:34:49.390Z,34.51
2018-07-20T09:37:31.333Z,34.92
2018-07-20T09:40:12.427Z,34.75
2018-07-20T09:42:54.383Z,35.10
2018-07-20T09:45:34.338Z,35.43
2018-07-20T09:48:06.432Z,35.29
2018-07-20T09:50:42.796Z,35.75
2018-07-20T09:53:20.416Z,35.79
2018-07-20T09:55:55.080Z,36.06
2018-07-20T09:58:35.724Z,35.96
2018-07-20T10:01:07.964Z,35.64
2018-07-20T10:03:40.805Z,35.46
2018-07-20T10:06:15.971Z,35.33
2018-07-20T10:08:53.097Z,35.93
2018-07-20T10:11:28.777Z,36.06
2018-07-20T10:14:06.609Z,35.26
2018-07-20T10:16:39.834Z,35.46
2018-07-20T10:19:11.299Z,35.14
2018-07-20T10:21:47.590Z,35.31
2018-07-20T10:24:34.363Z,35.91
2018-07-20T10:29:46.605Z,36.46
2018-07-20T10:32:36.289Z,36.46
2018-07-20T10:35:14.368Z,36.57
2018-07-20T10:37:46.586Z,37.25
2018-07-20T10:40:20.158Z,37.26
2018-07-20T10:42:59.466Z,36.84
2018-07-20T10:45:39.119Z,37.39
2018-07-20T10:48:39.496Z,36.45
2018-07-20T10:51:14.617Z,36.15
2018-07-20T10:53:51.427Z,36.31
2018-07-20T10:56:23.840Z,36.41
2018-07-20T10:58:55.903Z,36.69
2018-07-20T11:01:27.747Z,37.09
2018-07-20T11:04:05.449Z,36.59
2018-07-20T11:06:48.738Z,36.80
2018-07-20T11:09:21.345Z,36.79
2018-07-20T11:11:55.780Z,36.68
2018-07-20T11:14:28.562Z,37.00
2018-07-20T11:17:02.668Z,37.52
2018-07-20T11:19:36.917Z,37.86
2018-07-20T11:22:22.054Z,38.34
2018-07-20T11:26:19.258Z,38.50
2018-07-20T11:28:55.837Z,37.74
2018-07-20T11:31:32.941Z,37.07
2018-07-20T11:34:06.513Z,37.18
2018-07-20T11:36:41.497Z,37.01
2018-07-20T11:39:18.739Z,37.30
2018-07-20T11:44:42.889Z,36.85
2018-07-20T11:47:17.283Z,36.78
2018-07-20T11:49:49.748Z,37.10
2018-07-20T11:52:37.674Z,37.37
2018-07-20T11:55:16.786Z,37.27
2018-07-20T11:57:48.018Z,37.04
2018-07-20T12:00:21.376Z,36.83
2018-07-20T12:03:02.042Z,36.24
2018-07-20T12:05:33.857Z,35.44
2018-07-20T12:08:08.361Z,35.73
2018-07-20T12:10:42.932Z,35.60
2018-07-20T12:13:14.609Z,36.44
2018-07-20T12:15:46.528Z,36.09
2018-07-20T12:18:20.576Z,36.51
2018-07-20T12:20:51.708Z,37.02
2018-07-20T12:23:27.046Z,37.11
2018-07-20T12:26:03.327Z,37.48
2018-07-20T12:28:39.463Z,37.87
2018-07-20T12:31:14.657Z,37.11
2018-07-20T12:33:58.318Z,36.95
2018-07-20T12:36:44.748Z,37.05
2018-07-20T12:39:35.173Z,37.17
2018-07-20T12:42:13.889Z,36.88
2018-07-20T12:44:47.397Z,37.42
2018-07-20T12:47:23.311Z,38.14
2018-07-20T12:49:54.432Z,38.72
2018-07-20T12:52:29.765Z,38.52
2018-07-20T12:55:12.712Z,38.72
2018-07-20T12:57:46.729Z,39.15
2018-07-20T13:00:32.295Z,38.92
2018-07-20T13:03:11.434Z,38.91
2018-07-20T13:05:48.075Z,38.14
2018-07-20T13:08:22.394Z,37.84
2018-07-20T13:10:58.512Z,37.63
2018-07-20T13:13:29.910Z,37.56
2018-07-20T13:16:00.690Z,37.57
2018-07-20T13:18:38.508Z,37.58
2018-07-20T13:21:11.450Z,38.25
2018-07-20T13:23:47.810Z,38.39
2018-07-20T13:26:21.323Z,38.90
2018-07-20T13:28:53.275Z,39.25
2018-07-20T13:31:24.907Z,39.33
2018-07-20T13:33:55.720Z,39.31
2018-07-20T13:36:27.403Z,38.60
2018-07-20T13:39:06.227Z,38.36
2018-07-20T13:41:38.044Z,38.08
2018-07-20T13:44:12.676Z,37.71
2018-07-20T13:46:46.909Z,37.56
2018-07-20T13:49:20.776Z,37.49
2018-07-20T13:51:56.947Z,37.57
2018-07-20T13:54:30.401Z,37.24
2018-07-20T13:57:01.247Z,36.81
2018-07-20T13:59:34.410Z,37.36
2018-07-20T14:02:10.137Z,37.56
2018-07-20T14:04:43.241Z,37.41
2018-07-20T14:07:23.379Z,37.74
2018-07-20T14:09:58.683Z,37.76
2018-07-20T14:12:37.680Z,37.66
2018-07-20T14:15:18.981Z,37.58
2018-07-20T14:17:56.598Z,36.98
2018-07-20T14:20:28.500Z,37.06
2018-07-20T14:22:59.858Z,37.24
2018-07-20T14:25:34.263Z,37.03
2018-07-20T14:28:06.607Z,36.61
2018-07-20T14:33:28.996Z,37.02
2018-07-20T14:36:02.039Z,37.16
2018-07-20T14:38:33.458Z,37.40
2018-07-20T14:41:06.938Z,37.22
2018-07-20T14:43:38.425Z,37.33
2018-07-20T14:46:11.619Z,37.47
2018-07-20T14:48:45.602Z,37.09
2018-07-20T14:51:19.319Z,37.22
2018-07-20T14:53:50.794Z,36.74
2018-07-20T14:56:24.154Z,36.60
2018-07-20T14:58:55.452Z,36.45
2018-07-20T15:01:35.879Z,36.48
2018-07-20T15:04:07.955Z,36.15
2018-07-20T15:06:40.555Z,35.96
2018-07-20T15:09:13.355Z,36.25
2018-07-20T15:11:48.601Z,36.21
2018-07-20T15:16:53.837Z,36.32
2018-07-20T15:19:34.842Z,35.88
2018-07-20T15:22:07.921Z,35.66
2018-07-20T15:24:46.015Z,35.77
2018-07-20T15:30:20.601Z,35.81
2018-07-20T15:32:56.832Z,35.92
2018-07-20T15:35:28.233Z,35.97
2018-07-20T15:37:59.986Z,35.77
2018-07-20T15:40:30.511Z,35.60
2018-07-20T15:43:10.104Z,35.52
2018-07-20T15:45:51.882Z,34.94
2018-07-20T15:48:14.220Z,34.82
2018-07-20T15:50:45.464Z,34.58
2018-07-20T15:53:43.669Z,34.73
2018-07-20T15:55:46.858Z,34.81
2018-07-20T15:58:18.353Z,34.55
2018-07-20T16:00:50.773Z,34.40
2018-07-20T16:03:28.190Z,34.11
2018-07-20T16:06:02.572Z,34.06
2018-07-20T16:08:35.504Z,34.06
2018-07-20T16:11:07.957Z,34.06
2018-07-20T16:13:49.646Z,33.89
2018-07-20T16:16:27.234Z,33.62
2018-07-20T16:18:57.453Z,33.42
2018-07-20T16:21:29.716Z,33.30
2018-07-20T16:24:00.306Z,33.31
2018-07-20T16:26:48.874Z,33.36
2018-07-20T16:29:19.799Z,33.35
2018-07-20T16:31:55.630Z,33.41
2018-07-20T16:34:31.203Z,33.55
2018-07-20T16:37:03.313Z,33.46
2018-07-20T16:39:36.415Z,33.47
2018-07-20T16:42:07.624Z,33.36
2018-07-20T16:44:44.145Z,33.46
2018-07-20T16:47:17.442Z,33.54
2018-07-20T16:49:49.364Z,33.81
2018-07-20T16:52:26.967Z,33.54
2018-07-20T16:54:58.190Z,33.59
2018-07-20T16:57:33.132Z,33.56
2018-07-20T17:00:08.443Z,33.76
2018-07-20T17:03:00.285Z,33.75
2018-07-20T17:05:32.809Z,33.59
2018-07-20T17:08:29.709Z,33.55
2018-07-20T17:11:15.354Z,33.38
2018-07-20T17:13:51.626Z,33.22
2018-07-20T17:16:31.878Z,33.15
2018-07-20T17:19:05.900Z,33.12
2018-07-20T17:21:37.648Z,32.97
2018-07-20T17:24:10.522Z,32.79
2018-07-20T17:26:47.204Z,32.76
2018-07-20T17:29:21.303Z,32.64
2018-07-20T17:31:54.915Z,32.60
2018-07-20T17:34:26.743Z,32.52
2018-07-20T17:36:56.992Z,32.42
2018-07-20T17:39:27.406Z,32.43
2018-07-20T17:41:58.405Z,32.25
2018-07-20T17:44:30.365Z,32.07
2018-07-20T17:47:04.596Z,32.00
2018-07-20T17:49:38.386Z,31.95
2018-07-20T17:52:09.686Z,31.96
2018-07-20T17:54:41.292Z,31.79
2018-07-20T17:57:14.751Z,31.84
2018-07-20T17:59:46.036Z,31.80
2018-07-20T18:02:17.513Z,31.68
2018-07-20T18:04:50.399Z,31.62
2018-07-20T18:07:22.378Z,31.64
2018-07-20T18:09:53.451Z,31.50
2018-07-20T18:12:24.748Z,31.36
2018-07-20T18:14:56.073Z,31.43
2018-07-20T18:17:29.409Z,31.28
2018-07-20T18:20:00.327Z,31.21
2018-07-20T18:22:32.519Z,31.13
2018-07-20T18:25:05.039Z,31.24
2018-07-20T18:27:38.655Z,31.11
2018-07-20T18:30:09.633Z,30.87
2018-07-20T18:32:40.176Z,30.69
2018-07-20T18:35:10.734Z,30.70
2018-07-20T18:37:41.114Z,30.67
2018-07-20T18:40:12.520Z,30.65
2018-07-20T18:42:44.368Z,30.56
2018-07-20T18:45:17.671Z,30.41
2018-07-20T18:47:47.969Z,30.27
2018-07-20T18:50:30.554Z,30.31
2018-07-20T18:53:02.741Z,30.32
2018-07-20T18:55:33.431Z,30.32
2018-07-20T18:58:07.142Z,30.22
2018-07-20T19:00:38.030Z,30.24
2018-07-20T19:03:10.975Z,30.28
2018-07-20T19:05:42.626Z,30.23
2018-07-20T19:08:14.306Z,30.01
2018-07-20T19:10:49.111Z,29.86
2018-07-20T19:13:20.543Z,29.93
2018-07-20T19:15:51.533Z,30.09
2018-07-20T19:18:22.410Z,29.96
2018-07-20T19:20:52.771Z,29.77
2018-07-20T19:23:24.516Z,29.46
2018-07-20T19:25:55.829Z,29.46
2018-07-20T19:28:26.760Z,29.45
2018-07-20T19:30:58.739Z,29.41
2018-07-20T19:33:29.411Z,29.40
2018-07-20T19:36:02.209Z,29.28
2018-07-20T19:38:33.010Z,29.21
2018-07-20T19:41:10.680Z,29.14
2018-07-20T19:43:42.891Z,29.12
2018-07-20T19:46:17.530Z,29.06
2018-07-20T19:48:49.255Z,28.94
2018-07-20T19:51:24.873Z,28.99
2018-07-20T19:53:57.853Z,29.05
2018-07-20T19:56:30.163Z,28.90
2018-07-20T19:59:03.742Z,28.80
2018-07-20T20:01:37.671Z,28.86
2018-07-20T20:04:10.973Z,28.87
2018-07-20T20:06:41.731Z,28.82
2018-07-20T20:09:16.739Z,28.76
2018-07-20T20:11:48.411Z,28.71
2018-07-20T20:14:19.399Z,28.61
2018-07-20T20:16:50.820Z,28.53
2018-07-20T20:19:22.859Z,28.42
2018-07-20T20:21:55.493Z,28.31
2018-07-20T20:24:28.365Z,28.34
2018-07-20T20:27:04.243Z,28.45
2018-07-20T20:29:40.360Z,28.45
2018-07-20T20:32:14.111Z,28.04
2018-07-20T20:34:51.038Z,28.10
2018-07-20T20:37:26.033Z,27.96
2018-07-20T20:39:58.138Z,27.98
2018-07-20T20:45:37.754Z,27.96
2018-07-20T20:48:08.694Z,28.00
2018-07-20T20:50:50.210Z,27.97
2018-07-20T20:53:21.995Z,27.79
2018-07-20T20:55:54.538Z,27.71
2018-07-20T20:58:25.332Z,27.60
2018-07-20T21:01:12.466Z,27.59
2018-07-20T21:03:43.793Z,27.69
2018-07-20T21:06:19.284Z,27.60
2018-07-20T21:08:51.198Z,27.63
2018-07-20T21:11:32.090Z,27.65
2018-07-20T21:14:06.531Z,27.63
2018-07-20T21:16:41.515Z,27.58
2018-07-20T21:19:18.255Z,27.45
2018-07-20T21:21:50.620Z,27.50
2018-07-20T21:24:23.464Z,27.58
2018-07-20T21:26:55.344Z,27.52
2018-07-20T21:29:26.330Z,27.63
2018-07-20T21:31:59.679Z,27.82
2018-07-20T21:34:33.598Z,27.73
2018-07-20T21:37:07.906Z,27.59
2018-07-20T21:42:37.592Z,27.77
2018-07-20T21:45:08.876Z,27.65
2018-07-20T21:47:39.740Z,27.49
2018-07-20T21:50:10.568Z,27.38
2018-07-20T21:52:41.476Z,27.40
2018-07-20T21:55:12.836Z,27.45
2018-07-20T21:57:44.875Z,27.34
2018-07-20T22:00:23.253Z,27.44
2018-07-20T22:02:53.604Z,27.26
2018-07-20T22:05:36.507Z,27.34
2018-07-20T22:08:08.291Z,27.47
2018-07-20T22:10:43.985Z,27.48
2018-07-20T22:13:16.177Z,27.39
2018-07-20T22:15:52.553Z,27.42
2018-07-20T22:18:26.556Z,27.32
2018-07-20T22:20:59.887Z,27.23
2018-07-20T22:23:36.462Z,27.28
2018-07-20T22:26:09.746Z,27.24
2018-07-20T22:28:53.853Z,27.34
2018-07-20T22:31:28.562Z,27.49
2018-07-20T22:34:04.017Z,27.52
2018-07-20T22:36:35.174Z,27.46
2018-07-20T22:39:11.718Z,27.23
2018-07-20T22:41:42.330Z,27.20
2018-07-20T22:44:17.470Z,27.21
2018-07-20T22:46:49.580Z,27.21
2018-07-20T22:49:21.373Z,27.28
2018-07-20T22:51:55.647Z,27.39
2018-07-20T22:54:26.161Z,27.45
2018-07-20T22:57:00.571Z,27.44
2018-07-20T22:59:31.464Z,27.38
2018-07-20T23:02:06.085Z,27.37
2018-07-20T23:04:38.423Z,27.28
2018-07-20T23:07:12.754Z,26.97
2018-07-20T23:09:50.257Z,27.08
2018-07-20T23:12:24.841Z,27.08
2018-07-20T23:14:58.365Z,27.17
2018-07-20T23:17:47.505Z,27.14
2018-07-20T23:20:26.507Z,27.14
2018-07-20T23:22:58.931Z,27.02
2018-07-20T23:25:30.534Z,26.84
2018-07-20T23:28:02.935Z,26.74
2018-07-20T23:30:43.052Z,26.74
2018-07-20T23:33:14.583Z,26.69
2018-07-20T23:35:45.025Z,26.69
2018-07-20T23:38:17.387Z,26.86
2018-07-20T23:40:48.719Z,26.91
2018-07-20T23:43:20.147Z,26.89
2018-07-20T23:45:55.401Z,26.79
2018-07-20T23:48:31.272Z,26.87
2018-07-20T23:51:08.997Z,26.95
2018-07-20T23:53:41.603Z,27.01
2018-07-20T23:56:12.611Z,26.97
2018-07-20T23:58:45.027Z,26.73
